createdAt,value
2022-09-11T00:02:06.606Z,4.10
2022-09-11T00:04:34.125Z,3.92
2022-09-11T00:07:01.629Z,3.67
2022-09-11T00:09:30.507Z,4.13
2022-09-11T00:11:57.973Z,4.10
2022-09-11T00:14:28.939Z,4.03
2022-09-11T00:16:56.446Z,4.03
2022-09-11T00:19:24.042Z,4.22
2022-09-11T00:21:51.572Z,4.30
2022-09-11T00:24:19.204Z,4.30
2022-09-11T00:26:48.260Z,4.05
2022-09-11T00:29:15.760Z,4.25
2022-09-11T00:31:43.307Z,4.95
2022-09-11T00:34:10.806Z,5.28
2022-09-11T00:36:41.292Z,5.07
2022-09-11T00:39:09.003Z,5.45
2022-09-11T00:41:38.192Z,4.80
2022-09-11T00:44:08.562Z,4.60
2022-09-11T00:46:38.956Z,5.03
2022-09-11T00:49:12.354Z,4.83
2022-09-11T00:51:41.131Z,4.72
2022-09-11T00:54:11.142Z,4.72
2022-09-11T00:56:38.789Z,4.57
2022-09-11T00:59:08.129Z,5.07
2022-09-11T01:01:35.667Z,4.73
2022-09-11T01:04:03.941Z,4.63
2022-09-11T01:06:31.962Z,4.50
2022-09-11T01:09:00.272Z,4.43
2022-09-11T01:11:32.885Z,4.70
2022-09-11T01:14:03.894Z,4.87
2022-09-11T01:16:38.356Z,4.68
2022-09-11T01:19:09.851Z,4.10
2022-09-11T01:21:45.264Z,4.57
2022-09-11T01:24:19.153Z,4.88
2022-09-11T01:26:57.560Z,4.93
2022-09-11T01:29:28.952Z,4.65
2022-09-11T01:31:58.419Z,4.75
2022-09-11T01:34:32.569Z,4.57
2022-09-11T01:37:02.913Z,4.82
2022-09-11T01:39:34.240Z,4.93
2022-09-11T01:42:03.971Z,4.95
2022-09-11T01:44:35.310Z,4.50
2022-09-11T01:47:03.068Z,4.78
2022-09-11T01:49:35.320Z,4.57
2022-09-11T01:52:05.945Z,4.47
2022-09-11T01:54:35.535Z,4.90
2022-09-11T01:57:05.236Z,5.00
2022-09-11T01:59:37.084Z,4.70
2022-09-11T02:02:06.894Z,4.80
2022-09-11T02:04:37.460Z,5.10
2022-09-11T02:07:08.638Z,4.78
2022-09-11T02:09:38.936Z,4.95
2022-09-11T02:12:09.687Z,4.97
2022-09-11T02:14:40.852Z,4.88
2022-09-11T02:17:12.302Z,4.70
2022-09-11T02:19:41.216Z,5.40
2022-09-11T02:22:08.819Z,5.38
2022-09-11T02:24:36.382Z,5.50
2022-09-11T02:27:05.039Z,5.00
2022-09-11T02:29:32.599Z,5.43
2022-09-11T02:32:01.607Z,5.15
2022-09-11T02:34:30.625Z,5.80
2022-09-11T02:37:09.340Z,5.05
2022-09-11T02:39:43.322Z,5.57
2022-09-11T02:42:20.217Z,5.40
2022-09-11T02:44:53.261Z,5.68
2022-09-11T02:47:26.977Z,5.75
2022-09-11T02:50:00.233Z,5.82
2022-09-11T02:52:34.211Z,6.30
2022-09-11T02:55:05.905Z,6.40
2022-09-11T02:57:36.188Z,6.20
2022-09-11T03:00:05.356Z,6.22
2022-09-11T03:02:37.399Z,5.85
2022-09-11T03:05:04.954Z,6.60
2022-09-11T03:07:33.094Z,6.30
2022-09-11T03:10:00.568Z,6.50
2022-09-11T03:12:28.655Z,6.40
2022-09-11T03:14:57.200Z,6.43
2022-09-11T03:17:25.370Z,5.90
2022-09-11T03:19:54.239Z,5.90
2022-09-11T03:22:21.708Z,5.63
2022-09-11T03:24:49.222Z,5.82
2022-09-11T03:27:17.197Z,6.10
2022-09-11T03:29:44.812Z,5.90
2022-09-11T03:32:12.597Z,6.13
2022-09-11T03:34:40.106Z,5.65
2022-09-11T03:37:08.970Z,5.28
2022-09-11T03:39:36.530Z,5.00
2022-09-11T03:42:04.118Z,4.97
2022-09-11T03:44:31.596Z,5.13
2022-09-11T03:46:59.067Z,5.10
2022-09-11T03:49:26.571Z,5.25
2022-09-11T03:51:54.057Z,5.53
2022-09-11T03:54:22.935Z,5.00
2022-09-11T03:56:50.446Z,5.20
2022-09-11T03:59:18.608Z,4.80
2022-09-11T04:01:46.527Z,5.10
2022-09-11T04:04:16.097Z,5.55
2022-09-11T04:06:43.817Z,5.65
2022-09-11T04:09:11.309Z,5.40
2022-09-11T04:11:40.367Z,5.18
2022-09-11T04:14:07.864Z,5.28
2022-09-11T04:16:35.704Z,4.95
2022-09-11T04:19:03.279Z,4.93
2022-09-11T04:21:31.333Z,4.87
2022-09-11T04:24:00.306Z,4.80
2022-09-11T04:26:28.790Z,4.50
2022-09-11T04:28:58.758Z,4.63
2022-09-11T04:31:27.394Z,5.07
2022-09-11T04:33:57.705Z,4.70
2022-09-11T04:36:27.051Z,4.57
2022-09-11T04:39:00.841Z,4.13
2022-09-11T04:41:28.772Z,4.53
2022-09-11T04:44:02.439Z,4.47
2022-09-11T04:46:31.835Z,4.43
2022-09-11T04:49:00.245Z,3.95
2022-09-11T04:51:29.278Z,4.82
2022-09-11T04:53:57.491Z,4.90
2022-09-11T04:56:25.506Z,5.50
2022-09-11T04:58:58.088Z,4.97
2022-09-11T05:01:26.374Z,5.95
2022-09-11T05:03:53.894Z,4.70
2022-09-11T05:06:21.388Z,5.15
2022-09-11T05:08:48.851Z,4.50
2022-09-11T05:11:17.644Z,4.80
2022-09-11T05:13:51.375Z,4.93
2022-09-11T05:16:20.313Z,4.70
2022-09-11T05:18:52.021Z,4.70
2022-09-11T05:21:20.010Z,4.28
2022-09-11T05:23:48.982Z,4.83
2022-09-11T05:26:17.398Z,4.43
2022-09-11T05:28:44.980Z,4.63
2022-09-11T05:31:12.921Z,4.20
2022-09-11T05:33:41.940Z,4.25
2022-09-11T05:36:09.984Z,4.70
2022-09-11T05:38:37.632Z,4.43
2022-09-11T05:41:06.336Z,4.03
2022-09-11T05:43:33.981Z,4.05
2022-09-11T05:46:02.063Z,4.03
2022-09-11T05:48:29.881Z,3.90
2022-09-11T05:51:00.029Z,4.35
2022-09-11T05:53:28.009Z,4.00
2022-09-11T05:55:56.092Z,3.95
2022-09-11T05:58:23.723Z,4.20
2022-09-11T06:00:51.260Z,3.70
2022-09-11T06:03:19.859Z,3.90
2022-09-11T06:05:47.362Z,4.28
2022-09-11T06:08:16.193Z,3.92
2022-09-11T06:10:46.629Z,4.40
2022-09-11T06:13:17.728Z,4.30
2022-09-11T06:15:47.070Z,4.55
2022-09-11T06:18:15.075Z,4.18
2022-09-11T06:20:42.843Z,3.92
2022-09-11T06:23:11.498Z,4.22
2022-09-11T06:25:40.397Z,4.30
2022-09-11T06:28:07.979Z,4.18
2022-09-11T06:30:35.508Z,4.07
2022-09-11T06:33:03.005Z,4.40
2022-09-11T06:35:30.464Z,4.00
2022-09-11T06:37:57.981Z,4.43
2022-09-11T06:40:26.222Z,4.47
2022-09-11T06:42:55.064Z,4.13
2022-09-11T06:45:22.545Z,4.30
2022-09-11T06:47:50.029Z,3.78
2022-09-11T06:50:17.509Z,3.77
2022-09-11T06:52:45.029Z,4.03
2022-09-11T06:55:14.523Z,4.00
2022-09-11T06:57:42.319Z,4.30
2022-09-11T07:00:11.940Z,3.70
2022-09-11T07:02:39.414Z,3.40
2022-09-11T07:05:07.217Z,3.75
2022-09-11T07:07:34.694Z,3.50
2022-09-11T07:10:05.068Z,3.67
2022-09-11T07:12:32.665Z,3.65
2022-09-11T07:15:00.140Z,3.60
2022-09-11T07:17:29.456Z,3.30
2022-09-11T07:19:56.985Z,3.60
2022-09-11T07:22:24.531Z,3.03
2022-09-11T07:24:52.555Z,3.53
2022-09-11T07:27:20.071Z,3.00
2022-09-11T07:29:47.536Z,2.65
2022-09-11T07:32:15.034Z,3.00
2022-09-11T07:34:43.880Z,3.08
2022-09-11T07:37:11.382Z,2.80
2022-09-11T07:39:38.904Z,2.87
2022-09-11T07:42:07.321Z,2.58
2022-09-11T07:44:37.555Z,3.05
2022-09-11T07:47:05.495Z,2.70
2022-09-11T07:49:32.998Z,2.58
2022-09-11T07:52:03.584Z,3.00
2022-09-11T07:54:31.129Z,3.55
2022-09-11T07:56:58.888Z,3.58
2022-09-11T07:59:26.385Z,3.30
2022-09-11T08:01:55.681Z,3.20
2022-09-11T08:04:23.330Z,2.87
2022-09-11T08:06:50.873Z,2.83
2022-09-11T08:09:20.318Z,2.70
2022-09-11T08:11:48.787Z,2.90
2022-09-11T08:14:17.660Z,2.80
2022-09-11T08:16:45.845Z,2.70
2022-09-11T08:19:17.430Z,2.92
2022-09-11T08:21:47.214Z,2.80
2022-09-11T08:24:14.960Z,2.80
2022-09-11T08:26:48.595Z,2.80
2022-09-11T08:29:16.613Z,2.90
2022-09-11T08:31:45.270Z,2.83
2022-09-11T08:34:13.098Z,3.33
2022-09-11T08:36:40.853Z,2.80
2022-09-11T08:39:09.148Z,2.50
2022-09-11T08:41:41.146Z,2.40
2022-09-11T08:44:16.626Z,2.45
2022-09-11T08:46:45.218Z,2.70
2022-09-11T08:49:17.097Z,2.40
2022-09-11T08:51:47.115Z,3.25
2022-09-11T08:54:21.295Z,2.40
2022-09-11T08:56:49.841Z,2.50
2022-09-11T08:59:24.549Z,2.75
2022-09-11T09:01:56.029Z,2.47
2022-09-11T09:04:31.674Z,2.65
2022-09-11T09:07:02.311Z,2.33
2022-09-11T09:09:35.201Z,2.50
2022-09-11T09:12:06.183Z,2.70
2022-09-11T09:14:45.097Z,2.20
2022-09-11T09:17:13.470Z,2.88
2022-09-11T09:19:42.903Z,2.70
2022-09-11T09:22:13.681Z,2.90
2022-09-11T09:24:43.592Z,2.10
2022-09-11T09:27:16.148Z,2.10
2022-09-11T09:29:47.667Z,1.80
2022-09-11T09:32:16.659Z,1.90
2022-09-11T09:34:45.262Z,2.75
2022-09-11T09:37:15.657Z,2.28
2022-09-11T09:39:43.245Z,2.75
2022-09-11T09:42:26.201Z,2.70
2022-09-11T09:45:03.689Z,2.72
2022-09-11T09:47:31.237Z,2.80
2022-09-11T09:49:59.245Z,2.13
2022-09-11T09:52:27.495Z,1.83
2022-09-11T09:54:57.037Z,1.60
2022-09-11T09:57:26.040Z,1.70
2022-09-11T09:59:56.748Z,2.38
2022-09-11T10:02:37.709Z,1.90
2022-09-11T10:05:08.614Z,2.00
2022-09-11T10:07:37.015Z,2.07
2022-09-11T10:10:04.716Z,2.00
2022-09-11T10:12:32.482Z,2.40
2022-09-11T10:15:00.829Z,2.30
2022-09-11T10:17:32.419Z,2.40
2022-09-11T10:20:14.744Z,2.23
2022-09-11T10:22:42.565Z,2.00
2022-09-11T10:25:11.827Z,1.90
2022-09-11T10:27:41.636Z,1.63
2022-09-11T10:30:24.456Z,2.50
2022-09-11T10:32:51.956Z,2.70
2022-09-11T10:35:22.029Z,2.75
2022-09-11T10:38:00.482Z,2.70
2022-09-11T10:40:27.989Z,3.08
2022-09-11T10:42:55.510Z,2.97
2022-09-11T10:45:23.534Z,2.50
2022-09-11T10:47:51.005Z,2.50
2022-09-11T10:50:25.084Z,1.90
2022-09-11T10:53:06.773Z,1.92
2022-09-11T10:55:37.297Z,1.80
2022-09-11T10:58:06.536Z,1.80
2022-09-11T11:00:35.778Z,1.90
2022-09-11T11:03:06.270Z,1.93
2022-09-11T11:05:40.639Z,2.40
2022-09-11T11:08:21.960Z,2.53
2022-09-11T11:11:04.006Z,2.45
2022-09-11T11:13:42.761Z,2.90
2022-09-11T11:16:17.288Z,2.60
2022-09-11T11:18:54.716Z,2.20
2022-09-11T11:21:29.394Z,2.60
2022-09-11T11:24:13.399Z,2.40
2022-09-11T11:26:46.764Z,2.72
2022-09-11T11:29:38.150Z,2.50
2022-09-11T11:32:22.126Z,2.10
2022-09-11T11:35:01.276Z,2.60
2022-09-11T11:37:33.280Z,2.00
2022-09-11T11:40:03.187Z,2.03
2022-09-11T11:42:32.127Z,2.17
2022-09-11T11:45:03.800Z,1.97
2022-09-11T11:47:33.495Z,2.20
2022-09-11T11:50:05.872Z,2.22
2022-09-11T11:52:44.196Z,2.10
2022-09-11T11:55:18.835Z,2.22
2022-09-11T11:57:49.441Z,2.27
2022-09-11T12:00:18.582Z,2.42
2022-09-11T12:02:49.478Z,2.60
2022-09-11T12:05:18.661Z,2.20
2022-09-11T12:07:48.205Z,2.22
2022-09-11T12:10:21.721Z,2.83
2022-09-11T12:12:51.070Z,2.67
2022-09-11T12:15:20.217Z,3.38
2022-09-11T12:17:50.001Z,3.08
2022-09-11T12:20:34.500Z,2.40
2022-09-11T12:23:03.423Z,2.00
2022-09-11T12:26:04.160Z,1.90
2022-09-11T12:28:31.933Z,2.10
2022-09-11T12:31:00.930Z,2.00
2022-09-11T12:33:47.585Z,2.10
2022-09-11T12:36:17.001Z,2.00
2022-09-11T12:38:47.224Z,2.00
2022-09-11T12:41:17.346Z,2.00
2022-09-11T12:43:49.143Z,2.22
2022-09-11T12:46:35.627Z,2.30
2022-09-11T12:49:23.921Z,2.30
2022-09-11T12:51:53.136Z,2.50
2022-09-11T12:54:23.834Z,2.30
2022-09-11T12:56:52.845Z,2.30
2022-09-11T12:59:24.005Z,2.35
2022-09-11T13:01:52.097Z,2.00
2022-09-11T13:04:21.676Z,2.20
2022-09-11T13:06:51.649Z,2.30
2022-09-11T13:09:21.699Z,2.30
2022-09-11T13:11:51.100Z,2.00
2022-09-11T13:14:37.772Z,2.20
2022-09-11T13:17:14.527Z,2.10
2022-09-11T13:19:42.027Z,2.10
2022-09-11T13:22:23.579Z,2.50
2022-09-11T13:24:51.395Z,2.50
2022-09-11T13:27:25.348Z,2.30
2022-09-11T13:29:54.086Z,2.47
2022-09-11T13:32:22.401Z,1.90
2022-09-11T13:34:51.428Z,2.30
2022-09-11T13:37:27.321Z,2.20
2022-09-11T13:39:55.062Z,2.57
2022-09-11T13:42:25.788Z,2.25
2022-09-11T13:44:54.859Z,2.20
2022-09-11T13:47:23.103Z,2.58
2022-09-11T13:49:53.049Z,2.40
2022-09-11T13:52:22.636Z,2.30
2022-09-11T13:54:50.793Z,2.30
2022-09-11T13:57:19.090Z,2.22
2022-09-11T13:59:49.401Z,2.10
2022-09-11T14:02:35.717Z,2.28
2022-09-11T14:05:08.721Z,2.40
2022-09-11T14:07:42.664Z,2.40
2022-09-11T14:10:19.076Z,2.10
2022-09-11T14:12:49.045Z,1.95
2022-09-11T14:15:21.432Z,2.03
2022-09-11T14:17:49.062Z,1.90
2022-09-11T14:20:20.166Z,1.88
2022-09-11T14:22:48.425Z,2.00
2022-09-11T14:25:20.483Z,2.30
2022-09-11T14:27:48.401Z,2.20
2022-09-11T14:30:34.840Z,2.00
2022-09-11T14:33:14.136Z,2.30
2022-09-11T14:35:41.778Z,2.20
2022-09-11T14:38:10.454Z,2.20
2022-09-11T14:40:38.225Z,2.10
2022-09-11T14:43:06.443Z,2.17
2022-09-11T14:45:35.266Z,2.00
2022-09-11T14:48:03.229Z,2.33
2022-09-11T14:50:30.926Z,2.05
2022-09-11T14:52:58.795Z,2.00
2022-09-11T14:55:26.608Z,2.00
2022-09-11T14:57:54.104Z,2.38
2022-09-11T15:00:21.680Z,2.35
2022-09-11T15:02:51.180Z,2.30
2022-09-11T15:05:21.702Z,2.10
2022-09-11T15:07:49.244Z,2.17
2022-09-11T15:10:16.925Z,2.30
2022-09-11T15:12:44.597Z,2.30
2022-09-11T15:15:12.325Z,2.28
2022-09-11T15:17:39.814Z,2.22
2022-09-11T15:20:10.236Z,2.27
2022-09-11T15:22:38.349Z,2.15
2022-09-11T15:25:06.270Z,2.00
2022-09-11T15:27:34.043Z,2.15
2022-09-11T15:30:01.586Z,2.10
2022-09-11T15:32:29.208Z,2.30
2022-09-11T15:34:56.681Z,2.25
2022-09-11T15:37:26.270Z,2.13
2022-09-11T15:39:53.866Z,2.00
2022-09-11T15:42:21.429Z,2.05
2022-09-11T15:44:50.799Z,2.20
2022-09-11T15:47:18.485Z,2.28
2022-09-11T15:49:47.629Z,2.30
2022-09-11T15:52:15.438Z,2.25
2022-09-11T15:54:45.568Z,2.20
2022-09-11T15:57:13.099Z,2.10
2022-09-11T15:59:40.965Z,1.98
2022-09-11T16:02:09.101Z,2.30
2022-09-11T16:04:36.682Z,2.15
2022-09-11T16:07:04.446Z,2.20
2022-09-11T16:09:32.822Z,1.90
2022-09-11T16:12:02.246Z,1.80
2022-09-11T16:14:32.779Z,2.15
2022-09-11T16:17:01.256Z,2.35
2022-09-11T16:19:29.329Z,2.40
2022-09-11T16:21:57.451Z,2.37
2022-09-11T16:24:25.734Z,2.33
2022-09-11T16:26:54.393Z,2.35
2022-09-11T16:29:23.739Z,2.10
2022-09-11T16:31:51.217Z,2.22
2022-09-11T16:34:18.950Z,2.07
2022-09-11T16:36:46.812Z,2.22
2022-09-11T16:39:15.826Z,2.42
2022-09-11T16:41:43.314Z,2.40
2022-09-11T16:44:13.060Z,2.10
2022-09-11T16:46:42.233Z,2.20
2022-09-11T16:49:10.265Z,2.17
2022-09-11T16:51:37.765Z,2.30
2022-09-11T16:54:05.372Z,2.30
2022-09-11T16:56:32.839Z,2.50
2022-09-11T16:59:00.389Z,2.30
2022-09-11T17:01:29.308Z,2.95
2022-09-11T17:03:58.832Z,2.20
2022-09-11T17:06:30.230Z,2.13
2022-09-11T17:08:59.155Z,2.20
2022-09-11T17:11:27.867Z,2.80
2022-09-11T17:13:55.396Z,2.47
2022-09-11T17:16:24.282Z,2.53
2022-09-11T17:18:53.522Z,2.92
2022-09-11T17:21:24.092Z,2.55
2022-09-11T17:23:52.221Z,2.47
2022-09-11T17:26:19.723Z,2.60
2022-09-11T17:28:48.239Z,2.50
2022-09-11T17:31:16.343Z,2.47
2022-09-11T17:33:45.486Z,2.50
2022-09-11T17:36:14.092Z,2.20
2022-09-11T17:38:43.244Z,2.35
2022-09-11T17:41:11.270Z,2.45
2022-09-11T17:43:39.512Z,2.60
2022-09-11T17:46:08.135Z,2.50
2022-09-11T17:48:36.090Z,2.70
2022-09-11T17:51:04.876Z,2.60
2022-09-11T17:53:37.689Z,2.75
2022-09-11T17:56:08.329Z,2.83
2022-09-11T17:58:36.083Z,2.80
2022-09-11T18:01:03.913Z,2.90
2022-09-11T18:03:32.036Z,2.78
2022-09-11T18:05:59.817Z,2.53
2022-09-11T18:08:27.854Z,2.38
2022-09-11T18:10:59.292Z,2.50
2022-09-11T18:13:28.622Z,2.80
2022-09-11T18:15:56.881Z,2.60
2022-09-11T18:18:24.771Z,2.70
2022-09-11T18:20:54.062Z,3.67
2022-09-11T18:23:22.319Z,2.92
2022-09-11T18:25:50.272Z,2.60
2022-09-11T18:28:19.913Z,2.63
2022-09-11T18:30:49.875Z,2.50
2022-09-11T18:33:17.554Z,2.40
2022-09-11T18:35:45.738Z,2.67
2022-09-11T18:38:13.721Z,2.60
2022-09-11T18:40:41.191Z,2.60
2022-09-11T18:43:08.854Z,2.75
2022-09-11T18:45:36.593Z,2.40
2022-09-11T18:48:06.056Z,2.53
2022-09-11T18:50:33.546Z,2.60
2022-09-11T18:53:01.038Z,2.67
2022-09-11T18:55:29.020Z,2.50
2022-09-11T18:57:57.231Z,2.72
2022-09-11T19:00:24.711Z,2.50
2022-09-11T19:02:55.808Z,2.77
2022-09-11T19:05:25.109Z,2.80
2022-09-11T19:07:52.607Z,2.85
2022-09-11T19:10:20.309Z,2.80
2022-09-11T19:12:48.266Z,2.70
2022-09-11T19:15:16.381Z,2.70
2022-09-11T19:17:47.731Z,2.90
2022-09-11T19:20:16.530Z,2.67
2022-09-11T19:22:45.379Z,2.53
2022-09-11T19:25:12.858Z,2.60
2022-09-11T19:27:40.356Z,2.60
2022-09-11T19:30:08.731Z,3.05
2022-09-11T19:32:36.530Z,3.00
2022-09-11T19:35:04.910Z,3.17
2022-09-11T19:37:32.445Z,3.17
2022-09-11T19:40:01.347Z,3.30
2022-09-11T19:42:29.325Z,3.30
2022-09-11T19:44:56.861Z,3.58
2022-09-11T19:47:24.985Z,3.50
2022-09-11T19:49:52.904Z,4.10
2022-09-11T19:52:20.383Z,4.07
2022-09-11T19:54:47.883Z,3.95
2022-09-11T19:57:16.709Z,4.22
2022-09-11T19:59:44.186Z,4.13
2022-09-11T20:02:12.480Z,4.15
2022-09-11T20:04:40.047Z,4.30
2022-09-11T20:07:07.539Z,4.50
2022-09-11T20:09:35.322Z,4.32
2022-09-11T20:12:03.022Z,4.40
2022-09-11T20:14:32.137Z,4.78
2022-09-11T20:17:00.996Z,4.43
2022-09-11T20:19:28.781Z,4.45
2022-09-11T20:21:56.291Z,4.65
2022-09-11T20:24:23.934Z,4.68
2022-09-11T20:26:53.175Z,4.70
2022-09-11T20:29:20.823Z,4.30
